sensor_id;sensor_type;location;lat;lon;timestamp;pressure;altitude;pressure_sealevel;temperature
74539;BMP180;66042;51.090;-115.340;2023-01-19T00:00:53;85698.20;;;0.60
74539;BMP180;66042;51.090;-115.340;2023-01-19T00:03:20;85695.80;;;0.60
74539;BMP180;66042;51.090;-115.340;2023-01-19T00:05:48;85693.80;;;0.54
74539;BMP180;66042;51.090;-115.340;2023-01-19T00:08:15;85696.00;;;0.50
74539;BMP180;66042;51.090;-115.340;2023-01-19T00:10:48;85701.00;;;0.40
74539;BMP180;66042;51.090;-115.340;2023-01-19T00:13:18;85703.40;;;0.40
74539;BMP180;66042;51.090;-115.340;2023-01-19T00:15:45;85706.80;;;0.30
74539;BMP180;66042;51.090;-115.340;2023-01-19T00:18:12;85709.40;;;0.30
74539;BMP180;66042;51.090;-115.340;2023-01-19T00:20:40;85714.00;;;0.20
74539;BMP180;66042;51.090;-115.340;2023-01-19T00:23:07;85718.80;;;0.18
74539;BMP180;66042;51.090;-115.340;2023-01-19T00:25:36;85715.40;;;0.16
74539;BMP180;66042;51.090;-115.340;2023-01-19T00:28:12;85714.60;;;0.14
74539;BMP180;66042;51.090;-115.340;2023-01-19T00:30:41;85722.60;;;0.10
74539;BMP180;66042;51.090;-115.340;2023-01-19T00:33:11;85724.60;;;0.00
74539;BMP180;66042;51.090;-115.340;2023-01-19T00:35:41;85724.00;;;0.00
74539;BMP180;66042;51.090;-115.340;2023-01-19T00:38:10;85724.80;;;-0.10
74539;BMP180;66042;51.090;-115.340;2023-01-19T00:40:37;85726.60;;;-0.10
74539;BMP180;66042;51.090;-115.340;2023-01-19T00:43:04;85721.80;;;-0.18
74539;BMP180;66042;51.090;-115.340;2023-01-19T00:45:32;85727.80;;;-0.20
74539;BMP180;66042;51.090;-115.340;2023-01-19T00:47:59;85725.40;;;-0.20
74539;BMP180;66042;51.090;-115.340;2023-01-19T00:50:29;85727.00;;;-0.30
74539;BMP180;66042;51.090;-115.340;2023-01-19T00:52:57;85729.20;;;-0.30
74539;BMP180;66042;51.090;-115.340;2023-01-19T00:55:27;85724.80;;;-0.30
74539;BMP180;66042;51.090;-115.340;2023-01-19T00:57:55;85725.00;;;-0.40
74539;BMP180;66042;51.090;-115.340;2023-01-19T01:00:23;85723.40;;;-0.42
74539;BMP180;66042;51.090;-115.340;2023-01-19T01:02:52;85720.00;;;-0.50
74539;BMP180;66042;51.090;-115.340;2023-01-19T01:05:19;85716.00;;;-0.58
74539;BMP180;66042;51.090;-115.340;2023-01-19T01:07:46;85715.60;;;-0.60
74539;BMP180;66042;51.090;-115.340;2023-01-19T01:10:18;85715.20;;;-0.70
74539;BMP180;66042;51.090;-115.340;2023-01-19T01:12:46;85711.20;;;-0.70
74539;BMP180;66042;51.090;-115.340;2023-01-19T01:15:15;85710.20;;;-0.74
74539;BMP180;66042;51.090;-115.340;2023-01-19T01:17:42;85708.60;;;-0.80
74539;BMP180;66042;51.090;-115.340;2023-01-19T01:20:24;85704.60;;;-0.80
74539;BMP180;66042;51.090;-115.340;2023-01-19T01:22:53;85702.60;;;-0.84
74539;BMP180;66042;51.090;-115.340;2023-01-19T01:25:23;85704.40;;;-0.90
74539;BMP180;66042;51.090;-115.340;2023-01-19T01:27:51;85710.40;;;-0.92
74539;BMP180;66042;51.090;-115.340;2023-01-19T01:30:19;85709.00;;;-1.00
74539;BMP180;66042;51.090;-115.340;2023-01-19T01:32:46;85708.40;;;-1.02
74539;BMP180;66042;51.090;-115.340;2023-01-19T01:35:14;85704.20;;;-1.10
74539;BMP180;66042;51.090;-115.340;2023-01-19T01:37:41;85701.00;;;-1.10
74539;BMP180;66042;51.090;-115.340;2023-01-19T01:40:14;85697.20;;;-1.20
74539;BMP180;66042;51.090;-115.340;2023-01-19T01:42:42;85693.20;;;-1.20
74539;BMP180;66042;51.090;-115.340;2023-01-19T01:45:33;85689.80;;;-1.20
74539;BMP180;66042;51.090;-115.340;2023-01-19T01:50:45;85686.00;;;-1.28
74539;BMP180;66042;51.090;-115.340;2023-01-19T01:53:35;85688.80;;;-1.30
74539;BMP180;66042;51.090;-115.340;2023-01-19T01:56:08;85693.60;;;-1.30
74539;BMP180;66042;51.090;-115.340;2023-01-19T01:58:37;85695.40;;;-1.30
74539;BMP180;66042;51.090;-115.340;2023-01-19T02:01:06;85693.40;;;-1.34
74539;BMP180;66042;51.090;-115.340;2023-01-19T02:03:53;85693.20;;;-1.40
74539;BMP180;66042;51.090;-115.340;2023-01-19T02:06:23;85691.40;;;-1.40
74539;BMP180;66042;51.090;-115.340;2023-01-19T02:09:04;85693.00;;;-1.44
74539;BMP180;66042;51.090;-115.340;2023-01-19T02:11:52;85692.80;;;-1.50
74539;BMP180;66042;51.090;-115.340;2023-01-19T02:14:37;85693.40;;;-1.50
74539;BMP180;66042;51.090;-115.340;2023-01-19T02:17:06;85695.20;;;-1.60
74539;BMP180;66042;51.090;-115.340;2023-01-19T02:19:42;85694.00;;;-1.60
74539;BMP180;66042;51.090;-115.340;2023-01-19T02:22:16;85694.00;;;-1.62
74539;BMP180;66042;51.090;-115.340;2023-01-19T02:24:44;85700.00;;;-1.70
74539;BMP180;66042;51.090;-115.340;2023-01-19T02:27:12;85693.60;;;-1.70
74539;BMP180;66042;51.090;-115.340;2023-01-19T02:29:39;85693.60;;;-1.70
74539;BMP180;66042;51.090;-115.340;2023-01-19T02:32:07;85694.80;;;-1.70
74539;BMP180;66042;51.090;-115.340;2023-01-19T02:34:35;85693.60;;;-1.70
74539;BMP180;66042;51.090;-115.340;2023-01-19T02:37:13;85691.80;;;-1.70
74539;BMP180;66042;51.090;-115.340;2023-01-19T02:40:02;85689.80;;;-1.74
74539;BMP180;66042;51.090;-115.340;2023-01-19T02:42:51;85689.00;;;-1.76
74539;BMP180;66042;51.090;-115.340;2023-01-19T02:45:22;85687.00;;;-1.80
74539;BMP180;66042;51.090;-115.340;2023-01-19T02:47:52;85688.60;;;-1.80
74539;BMP180;66042;51.090;-115.340;2023-01-19T02:50:45;85678.80;;;-1.80
74539;BMP180;66042;51.090;-115.340;2023-01-19T03:14:12;85687.40;;;-1.90
74539;BMP180;66042;51.090;-115.340;2023-01-19T03:16:56;85687.00;;;-1.90
74539;BMP180;66042;51.090;-115.340;2023-01-19T03:19:33;85694.00;;;-1.90
74539;BMP180;66042;51.090;-115.340;2023-01-19T03:22:08;85693.40;;;-1.98
74539;BMP180;66042;51.090;-115.340;2023-01-19T03:24:41;85694.80;;;-2.00
74539;BMP180;66042;51.090;-115.340;2023-01-19T03:27:37;85689.80;;;-2.00
74539;BMP180;66042;51.090;-115.340;2023-01-19T03:30:12;85688.60;;;-2.00
74539;BMP180;66042;51.090;-115.340;2023-01-19T03:32:55;85683.20;;;-2.10
74539;BMP180;66042;51.090;-115.340;2023-01-19T03:35:27;85678.40;;;-2.10
74539;BMP180;66042;51.090;-115.340;2023-01-19T03:37:57;85677.80;;;-2.12
74539;BMP180;66042;51.090;-115.340;2023-01-19T03:40:31;85673.80;;;-2.20
74539;BMP180;66042;51.090;-115.340;2023-01-19T03:43:01;85671.60;;;-2.20
74539;BMP180;66042;51.090;-115.340;2023-01-19T03:45:32;85670.20;;;-2.26
74539;BMP180;66042;51.090;-115.340;2023-01-19T03:48:01;85670.60;;;-2.30
74539;BMP180;66042;51.090;-115.340;2023-01-19T03:50:30;85667.20;;;-2.30
74539;BMP180;66042;51.090;-115.340;2023-01-19T03:55:33;85674.20;;;-2.38
74539;BMP180;66042;51.090;-115.340;2023-01-19T03:58:00;85674.00;;;-2.40
74539;BMP180;66042;51.090;-115.340;2023-01-19T04:00:27;85670.00;;;-2.40
74539;BMP180;66042;51.090;-115.340;2023-01-19T04:02:54;85672.20;;;-2.40
74539;BMP180;66042;51.090;-115.340;2023-01-19T04:05:22;85671.20;;;-2.40
74539;BMP180;66042;51.090;-115.340;2023-01-19T04:07:50;85669.00;;;-2.40
74539;BMP180;66042;51.090;-115.340;2023-01-19T04:10:18;85662.40;;;-2.50
74539;BMP180;66042;51.090;-115.340;2023-01-19T04:12:46;85662.40;;;-2.50
74539;BMP180;66042;51.090;-115.340;2023-01-19T04:15:13;85665.60;;;-2.50
74539;BMP180;66042;51.090;-115.340;2023-01-19T04:17:40;85667.20;;;-2.46
74539;BMP180;66042;51.090;-115.340;2023-01-19T04:20:08;85665.00;;;-2.40
74539;BMP180;66042;51.090;-115.340;2023-01-19T04:22:35;85665.00;;;-2.40
74539;BMP180;66042;51.090;-115.340;2023-01-19T04:25:05;85656.80;;;-2.40
74539;BMP180;66042;51.090;-115.340;2023-01-19T04:27:32;85653.20;;;-2.40
74539;BMP180;66042;51.090;-115.340;2023-01-19T04:30:00;85650.40;;;-2.40
74539;BMP180;66042;51.090;-115.340;2023-01-19T04:32:27;85651.60;;;-2.40
74539;BMP180;66042;51.090;-115.340;2023-01-19T04:34:54;85651.80;;;-2.42
74539;BMP180;66042;51.090;-115.340;2023-01-19T04:37:21;85659.80;;;-2.40
74539;BMP180;66042;51.090;-115.340;2023-01-19T04:39:48;85664.00;;;-2.40
74539;BMP180;66042;51.090;-115.340;2023-01-19T04:42:15;85667.60;;;-2.40
74539;BMP180;66042;51.090;-115.340;2023-01-19T04:44:42;85669.80;;;-2.38
74539;BMP180;66042;51.090;-115.340;2023-01-19T04:47:09;85670.80;;;-2.32
74539;BMP180;66042;51.090;-115.340;2023-01-19T04:49:37;85667.40;;;-2.30
74539;BMP180;66042;51.090;-115.340;2023-01-19T04:52:06;85663.00;;;-2.30
74539;BMP180;66042;51.090;-115.340;2023-01-19T04:54:34;85663.20;;;-2.30
74539;BMP180;66042;51.090;-115.340;2023-01-19T04:57:00;85669.40;;;-2.30
74539;BMP180;66042;51.090;-115.340;2023-01-19T04:59:28;85671.40;;;-2.38
74539;BMP180;66042;51.090;-115.340;2023-01-19T05:01:54;85666.60;;;-2.40
74539;BMP180;66042;51.090;-115.340;2023-01-19T05:04:22;85668.20;;;-2.40
74539;BMP180;66042;51.090;-115.340;2023-01-19T05:06:49;85665.20;;;-2.48
74539;BMP180;66042;51.090;-115.340;2023-01-19T05:09:17;85665.80;;;-2.50
74539;BMP180;66042;51.090;-115.340;2023-01-19T05:11:44;85667.80;;;-2.50
74539;BMP180;66042;51.090;-115.340;2023-01-19T05:14:11;85673.60;;;-2.60
74539;BMP180;66042;51.090;-115.340;2023-01-19T05:16:39;85669.60;;;-2.60
74539;BMP180;66042;51.090;-115.340;2023-01-19T05:19:06;85678.40;;;-2.60
74539;BMP180;66042;51.090;-115.340;2023-01-19T05:21:33;85681.60;;;-2.68
74539;BMP180;66042;51.090;-115.340;2023-01-19T05:24:01;85676.20;;;-2.70
74539;BMP180;66042;51.090;-115.340;2023-01-19T05:26:28;85681.00;;;-2.70
74539;BMP180;66042;51.090;-115.340;2023-01-19T05:28:55;85683.40;;;-2.70
74539;BMP180;66042;51.090;-115.340;2023-01-19T05:31:22;85681.40;;;-2.78
74539;BMP180;66042;51.090;-115.340;2023-01-19T05:33:49;85678.40;;;-2.80
74539;BMP180;66042;51.090;-115.340;2023-01-19T05:36:15;85675.00;;;-2.80
74539;BMP180;66042;51.090;-115.340;2023-01-19T05:38:42;85676.40;;;-2.82
74539;BMP180;66042;51.090;-115.340;2023-01-19T05:41:09;85673.60;;;-2.90
74539;BMP180;66042;51.090;-115.340;2023-01-19T05:43:36;85673.60;;;-2.90
74539;BMP180;66042;51.090;-115.340;2023-01-19T05:46:04;85669.80;;;-2.90
74539;BMP180;66042;51.090;-115.340;2023-01-19T05:48:31;85674.20;;;-2.90
74539;BMP180;66042;51.090;-115.340;2023-01-19T05:51:00;85675.60;;;-2.90
74539;BMP180;66042;51.090;-115.340;2023-01-19T05:53:27;85679.20;;;-2.90
74539;BMP180;66042;51.090;-115.340;2023-01-19T05:56:00;85679.60;;;-2.90
74539;BMP180;66042;51.090;-115.340;2023-01-19T05:58:27;85691.20;;;-2.90
74539;BMP180;66042;51.090;-115.340;2023-01-19T06:00:54;85702.20;;;-2.80
74539;BMP180;66042;51.090;-115.340;2023-01-19T06:03:21;85694.20;;;-2.80
74539;BMP180;66042;51.090;-115.340;2023-01-19T06:05:48;85697.20;;;-2.80
74539;BMP180;66042;51.090;-115.340;2023-01-19T06:08:15;85694.80;;;-2.76
74539;BMP180;66042;51.090;-115.340;2023-01-19T06:10:42;85698.20;;;-2.70
74539;BMP180;66042;51.090;-115.340;2023-01-19T06:13:09;85706.60;;;-2.70
74539;BMP180;66042;51.090;-115.340;2023-01-19T06:15:36;85701.40;;;-2.70
74539;BMP180;66042;51.090;-115.340;2023-01-19T06:18:03;85694.40;;;-2.70
74539;BMP180;66042;51.090;-115.340;2023-01-19T06:20:30;85705.80;;;-2.74
74539;BMP180;66042;51.090;-115.340;2023-01-19T06:22:57;85713.80;;;-2.76
74539;BMP180;66042;51.090;-115.340;2023-01-19T06:25:24;85706.00;;;-2.74
74539;BMP180;66042;51.090;-115.340;2023-01-19T06:27:51;85714.60;;;-2.78
74539;BMP180;66042;51.090;-115.340;2023-01-19T06:30:19;85722.60;;;-2.80
74539;BMP180;66042;51.090;-115.340;2023-01-19T06:32:46;85717.20;;;-2.80
74539;BMP180;66042;51.090;-115.340;2023-01-19T06:35:14;85726.20;;;-2.80
74539;BMP180;66042;51.090;-115.340;2023-01-19T06:37:41;85729.00;;;-2.86
74539;BMP180;66042;51.090;-115.340;2023-01-19T06:40:09;85731.00;;;-2.90
74539;BMP180;66042;51.090;-115.340;2023-01-19T06:42:37;85738.40;;;-2.90
74539;BMP180;66042;51.090;-115.340;2023-01-19T06:45:04;85735.80;;;-2.90
74539;BMP180;66042;51.090;-115.340;2023-01-19T06:47:31;85739.80;;;-2.90
74539;BMP180;66042;51.090;-115.340;2023-01-19T06:49:59;85743.00;;;-2.90
74539;BMP180;66042;51.090;-115.340;2023-01-19T06:52:27;85736.80;;;-2.94
74539;BMP180;66042;51.090;-115.340;2023-01-19T06:54:55;85738.00;;;-3.00
74539;BMP180;66042;51.090;-115.340;2023-01-19T06:57:21;85742.00;;;-3.00
74539;BMP180;66042;51.090;-115.340;2023-01-19T06:59:48;85747.00;;;-3.00
74539;BMP180;66042;51.090;-115.340;2023-01-19T07:02:15;85745.60;;;-3.00
74539;BMP180;66042;51.090;-115.340;2023-01-19T07:04:45;85747.20;;;-3.00
74539;BMP180;66042;51.090;-115.340;2023-01-19T07:07:12;85750.20;;;-3.00
74539;BMP180;66042;51.090;-115.340;2023-01-19T07:09:39;85758.80;;;-3.00
74539;BMP180;66042;51.090;-115.340;2023-01-19T07:12:06;85762.60;;;-3.00
74539;BMP180;66042;51.090;-115.340;2023-01-19T07:14:34;85754.20;;;-2.90
74539;BMP180;66042;51.090;-115.340;2023-01-19T07:17:01;85763.40;;;-2.90
74539;BMP180;66042;51.090;-115.340;2023-01-19T07:19:28;85767.20;;;-2.84
74539;BMP180;66042;51.090;-115.340;2023-01-19T07:21:56;85766.20;;;-2.80
74539;BMP180;66042;51.090;-115.340;2023-01-19T07:24:23;85768.40;;;-2.80
74539;BMP180;66042;51.090;-115.340;2023-01-19T07:26:50;85770.40;;;-2.70
74539;BMP180;66042;51.090;-115.340;2023-01-19T07:29:17;85767.00;;;-2.70
74539;BMP180;66042;51.090;-115.340;2023-01-19T07:31:44;85772.60;;;-2.72
74539;BMP180;66042;51.090;-115.340;2023-01-19T07:34:14;85761.80;;;-2.70
74539;BMP180;66042;51.090;-115.340;2023-01-19T07:36:41;85763.80;;;-2.72
74539;BMP180;66042;51.090;-115.340;2023-01-19T07:39:09;85764.20;;;-2.70
74539;BMP180;66042;51.090;-115.340;2023-01-19T07:41:36;85770.60;;;-2.78
74539;BMP180;66042;51.090;-115.340;2023-01-19T07:44:04;85768.40;;;-2.80
74539;BMP180;66042;51.090;-115.340;2023-01-19T07:46:31;85770.80;;;-2.80
74539;BMP180;66042;51.090;-115.340;2023-01-19T07:48:58;85775.40;;;-2.80
74539;BMP180;66042;51.090;-115.340;2023-01-19T07:51:25;85775.20;;;-2.80
74539;BMP180;66042;51.090;-115.340;2023-01-19T07:53:53;85785.40;;;-2.80
74539;BMP180;66042;51.090;-115.340;2023-01-19T07:56:19;85786.40;;;-2.80
74539;BMP180;66042;51.090;-115.340;2023-01-19T07:58:47;85786.00;;;-2.82
74539;BMP180;66042;51.090;-115.340;2023-01-19T08:01:18;85790.80;;;-2.84
74539;BMP180;66042;51.090;-115.340;2023-01-19T08:03:47;85797.20;;;-2.86
74539;BMP180;66042;51.090;-115.340;2023-01-19T08:06:34;85793.40;;;-2.88
74539;BMP180;66042;51.090;-115.340;2023-01-19T08:09:01;85789.60;;;-2.84
74539;BMP180;66042;51.090;-115.340;2023-01-19T08:11:32;85797.60;;;-2.88
74539;BMP180;66042;51.090;-115.340;2023-01-19T08:13:59;85800.60;;;-2.90
74539;BMP180;66042;51.090;-115.340;2023-01-19T08:16:26;85797.00;;;-2.88
74539;BMP180;66042;51.090;-115.340;2023-01-19T08:18:53;85795.60;;;-2.88
74539;BMP180;66042;51.090;-115.340;2023-01-19T08:21:20;85798.00;;;-2.88
74539;BMP180;66042;51.090;-115.340;2023-01-19T08:23:55;85799.00;;;-2.90
74539;BMP180;66042;51.090;-115.340;2023-01-19T08:26:34;85797.40;;;-2.90
74539;BMP180;66042;51.090;-115.340;2023-01-19T08:29:04;85798.00;;;-2.90
74539;BMP180;66042;51.090;-115.340;2023-01-19T08:31:31;85799.60;;;-2.88
74539;BMP180;66042;51.090;-115.340;2023-01-19T08:33:58;85806.20;;;-2.80
74539;BMP180;66042;51.090;-115.340;2023-01-19T08:36:25;85801.20;;;-2.80
74539;BMP180;66042;51.090;-115.340;2023-01-19T08:38:53;85807.80;;;-2.72
74539;BMP180;66042;51.090;-115.340;2023-01-19T08:41:20;85817.40;;;-2.70
74539;BMP180;66042;51.090;-115.340;2023-01-19T08:43:48;85820.00;;;-2.70
74539;BMP180;66042;51.090;-115.340;2023-01-19T08:46:15;85826.20;;;-2.62
74539;BMP180;66042;51.090;-115.340;2023-01-19T08:48:43;85822.00;;;-2.60
74539;BMP180;66042;51.090;-115.340;2023-01-19T08:51:11;85824.40;;;-2.60
74539;BMP180;66042;51.090;-115.340;2023-01-19T08:53:38;85830.80;;;-2.60
74539;BMP180;66042;51.090;-115.340;2023-01-19T08:56:08;85835.60;;;-2.60
74539;BMP180;66042;51.090;-115.340;2023-01-19T08:58:41;85830.00;;;-2.60
74539;BMP180;66042;51.090;-115.340;2023-01-19T09:01:12;85829.80;;;-2.60
74539;BMP180;66042;51.090;-115.340;2023-01-19T09:03:47;85831.60;;;-2.60
74539;BMP180;66042;51.090;-115.340;2023-01-19T09:06:16;85832.20;;;-2.68
74539;BMP180;66042;51.090;-115.340;2023-01-19T09:08:45;85835.80;;;-2.70
74539;BMP180;66042;51.090;-115.340;2023-01-19T09:11:14;85834.60;;;-2.70
74539;BMP180;66042;51.090;-115.340;2023-01-19T09:13:42;85841.20;;;-2.70
74539;BMP180;66042;51.090;-115.340;2023-01-19T09:16:10;85845.80;;;-2.70
74539;BMP180;66042;51.090;-115.340;2023-01-19T09:18:38;85840.60;;;-2.78
74539;BMP180;66042;51.090;-115.340;2023-01-19T09:21:06;85846.40;;;-2.80
74539;BMP180;66042;51.090;-115.340;2023-01-19T09:23:33;85841.40;;;-2.80
74539;BMP180;66042;51.090;-115.340;2023-01-19T09:26:03;85846.60;;;-2.80
74539;BMP180;66042;51.090;-115.340;2023-01-19T09:28:31;85859.00;;;-2.86
74539;BMP180;66042;51.090;-115.340;2023-01-19T09:31:02;85863.20;;;-2.90
74539;BMP180;66042;51.090;-115.340;2023-01-19T09:33:29;85861.00;;;-2.90
74539;BMP180;66042;51.090;-115.340;2023-01-19T09:35:56;85863.40;;;-2.90
74539;BMP180;66042;51.090;-115.340;2023-01-19T09:38:23;85866.20;;;-2.90
74539;BMP180;66042;51.090;-115.340;2023-01-19T09:40:53;85870.60;;;-2.90
74539;BMP180;66042;51.090;-115.340;2023-01-19T09:46:02;85876.40;;;-2.84
74539;BMP180;66042;51.090;-115.340;2023-01-19T09:48:57;85885.40;;;-2.80
74539;BMP180;66042;51.090;-115.340;2023-01-19T09:51:38;85886.60;;;-2.80
74539;BMP180;66042;51.090;-115.340;2023-01-19T09:54:25;85887.40;;;-2.86
74539;BMP180;66042;51.090;-115.340;2023-01-19T09:56:54;85893.40;;;-2.90
74539;BMP180;66042;51.090;-115.340;2023-01-19T09:59:29;85900.60;;;-2.90
74539;BMP180;66042;51.090;-115.340;2023-01-19T10:02:34;85896.80;;;-2.90
74539;BMP180;66042;51.090;-115.340;2023-01-19T10:10:34;85910.80;;;-3.00
74539;BMP180;66042;51.090;-115.340;2023-01-19T10:16:25;85914.20;;;-3.06
74539;BMP180;66042;51.090;-115.340;2023-01-19T10:18:59;85913.80;;;-3.10
74539;BMP180;66042;51.090;-115.340;2023-01-19T10:21:34;85906.80;;;-3.10
74539;BMP180;66042;51.090;-115.340;2023-01-19T10:24:31;85913.40;;;-3.10
74539;BMP180;66042;51.090;-115.340;2023-01-19T10:27:02;85915.60;;;-3.12
74539;BMP180;66042;51.090;-115.340;2023-01-19T10:29:36;85925.80;;;-3.10
74539;BMP180;66042;51.090;-115.340;2023-01-19T10:32:29;85917.80;;;-3.10
74539;BMP180;66042;51.090;-115.340;2023-01-19T10:34:58;85915.60;;;-3.10
74539;BMP180;66042;51.090;-115.340;2023-01-19T10:37:38;85919.80;;;-3.10
74539;BMP180;66042;51.090;-115.340;2023-01-19T10:42:40;85926.00;;;-3.16
74539;BMP180;66042;51.090;-115.340;2023-01-19T10:45:19;85928.80;;;-3.20
74539;BMP180;66042;51.090;-115.340;2023-01-19T10:47:48;85936.80;;;-3.20
74539;BMP180;66042;51.090;-115.340;2023-01-19T10:50:36;85938.60;;;-3.28
74539;BMP180;66042;51.090;-115.340;2023-01-19T10:53:20;85939.60;;;-3.30
74539;BMP180;66042;51.090;-115.340;2023-01-19T10:56:11;85941.80;;;-3.30
74539;BMP180;66042;51.090;-115.340;2023-01-19T10:58:40;85941.60;;;-3.32
74539;BMP180;66042;51.090;-115.340;2023-01-19T11:01:21;85945.00;;;-3.40
74539;BMP180;66042;51.090;-115.340;2023-01-19T11:03:49;85941.80;;;-3.40
74539;BMP180;66042;51.090;-115.340;2023-01-19T11:06:26;85946.80;;;-3.40
74539;BMP180;66042;51.090;-115.340;2023-01-19T11:09:18;85951.80;;;-3.46
74539;BMP180;66042;51.090;-115.340;2023-01-19T11:11:50;85948.60;;;-3.50
74539;BMP180;66042;51.090;-115.340;2023-01-19T11:14:23;85948.00;;;-3.50
74539;BMP180;66042;51.090;-115.340;2023-01-19T11:16:56;85955.80;;;-3.50
74539;BMP180;66042;51.090;-115.340;2023-01-19T11:19:32;85959.00;;;-3.50
74539;BMP180;66042;51.090;-115.340;2023-01-19T11:22:19;85970.60;;;-3.50
74539;BMP180;66042;51.090;-115.340;2023-01-19T11:24:50;85975.00;;;-3.40
74539;BMP180;66042;51.090;-115.340;2023-01-19T11:27:20;85975.20;;;-3.38
74539;BMP180;66042;51.090;-115.340;2023-01-19T11:32:35;85983.60;;;-3.30
74539;BMP180;66042;51.090;-115.340;2023-01-19T11:35:35;85985.80;;;-3.30
74539;BMP180;66042;51.090;-115.340;2023-01-19T11:40:41;85996.20;;;-3.30
74539;BMP180;66042;51.090;-115.340;2023-01-19T11:43:13;86002.20;;;-3.30
74539;BMP180;66042;51.090;-115.340;2023-01-19T11:45:40;86000.20;;;-3.32
74539;BMP180;66042;51.090;-115.340;2023-01-19T11:48:22;86004.60;;;-3.40
74539;BMP180;66042;51.090;-115.340;2023-01-19T11:50:51;86004.60;;;-3.40
74539;BMP180;66042;51.090;-115.340;2023-01-19T11:53:33;86006.80;;;-3.40
74539;BMP180;66042;51.090;-115.340;2023-01-19T11:56:10;86005.00;;;-3.44
74539;BMP180;66042;51.090;-115.340;2023-01-19T11:58:42;86003.20;;;-3.50
74539;BMP180;66042;51.090;-115.340;2023-01-19T12:01:24;86005.80;;;-3.50
74539;BMP180;66042;51.090;-115.340;2023-01-19T12:04:36;86004.80;;;-3.56
74539;BMP180;66042;51.090;-115.340;2023-01-19T12:07:08;86010.60;;;-3.60
74539;BMP180;66042;51.090;-115.340;2023-01-19T12:10:29;86016.40;;;-3.60
74539;BMP180;66042;51.090;-115.340;2023-01-19T12:12:58;86020.80;;;-3.66
74539;BMP180;66042;51.090;-115.340;2023-01-19T12:15:39;86015.80;;;-3.70
74539;BMP180;66042;51.090;-115.340;2023-01-19T12:18:18;86016.00;;;-3.70
74539;BMP180;66042;51.090;-115.340;2023-01-19T12:20:51;86022.00;;;-3.70
74539;BMP180;66042;51.090;-115.340;2023-01-19T12:23:54;86025.00;;;-3.70
74539;BMP180;66042;51.090;-115.340;2023-01-19T12:26:34;86028.00;;;-3.70
74539;BMP180;66042;51.090;-115.340;2023-01-19T12:29:14;86033.80;;;-3.70
74539;BMP180;66042;51.090;-115.340;2023-01-19T12:31:43;86028.80;;;-3.66
74539;BMP180;66042;51.090;-115.340;2023-01-19T12:37:02;86036.40;;;-3.60
74539;BMP180;66042;51.090;-115.340;2023-01-19T12:39:31;86039.20;;;-3.60
74539;BMP180;66042;51.090;-115.340;2023-01-19T12:42:16;86038.00;;;-3.52
74539;BMP180;66042;51.090;-115.340;2023-01-19T12:44:46;86044.00;;;-3.52
74539;BMP180;66042;51.090;-115.340;2023-01-19T12:49:51;86058.80;;;-3.52
74539;BMP180;66042;51.090;-115.340;2023-01-19T12:52:39;86060.00;;;-3.52
74539;BMP180;66042;51.090;-115.340;2023-01-19T12:57:59;86066.00;;;-3.56
74539;BMP180;66042;51.090;-115.340;2023-01-19T13:00:38;86069.00;;;-3.58
74539;BMP180;66042;51.090;-115.340;2023-01-19T13:05:54;86074.00;;;-3.60
74539;BMP180;66042;51.090;-115.340;2023-01-19T13:08:55;86082.00;;;-3.60
74539;BMP180;66042;51.090;-115.340;2023-01-19T13:11:22;86086.60;;;-3.60
74539;BMP180;66042;51.090;-115.340;2023-01-19T13:21:44;86105.60;;;-3.70
74539;BMP180;66042;51.090;-115.340;2023-01-19T13:24:18;86112.00;;;-3.70
74539;BMP180;66042;51.090;-115.340;2023-01-19T13:29:29;86119.00;;;-3.60
74539;BMP180;66042;51.090;-115.340;2023-01-19T13:32:13;86116.60;;;-3.60
74539;BMP180;66042;51.090;-115.340;2023-01-19T13:34:50;86114.40;;;-3.60
74539;BMP180;66042;51.090;-115.340;2023-01-19T13:37:28;86115.80;;;-3.60
74539;BMP180;66042;51.090;-115.340;2023-01-19T13:39:56;86116.20;;;-3.60
74539;BMP180;66042;51.090;-115.340;2023-01-19T13:42:35;86126.80;;;-3.60
74539;BMP180;66042;51.090;-115.340;2023-01-19T13:47:54;86135.80;;;-3.60
74539;BMP180;66042;51.090;-115.340;2023-01-19T13:50:31;86141.80;;;-3.60
74539;BMP180;66042;51.090;-115.340;2023-01-19T13:53:00;86145.00;;;-3.60
74539;BMP180;66042;51.090;-115.340;2023-01-19T13:55:30;86147.20;;;-3.62
74539;BMP180;66042;51.090;-115.340;2023-01-19T13:57:57;86154.80;;;-3.70
74539;BMP180;66042;51.090;-115.340;2023-01-19T14:00:29;86151.20;;;-3.70
74539;BMP180;66042;51.090;-115.340;2023-01-19T14:03:01;86152.80;;;-3.80
74539;BMP180;66042;51.090;-115.340;2023-01-19T14:05:41;86152.80;;;-3.80
74539;BMP180;66042;51.090;-115.340;2023-01-19T14:08:13;86149.00;;;-3.90
74539;BMP180;66042;51.090;-115.340;2023-01-19T14:13:31;86149.80;;;-4.00
74539;BMP180;66042;51.090;-115.340;2023-01-19T14:16:20;86154.20;;;-4.10
74539;BMP180;66042;51.090;-115.340;2023-01-19T14:19:01;86159.80;;;-4.10
74539;BMP180;66042;51.090;-115.340;2023-01-19T14:21:40;86159.60;;;-4.10
74539;BMP180;66042;51.090;-115.340;2023-01-19T14:24:26;86164.80;;;-4.10
74539;BMP180;66042;51.090;-115.340;2023-01-19T14:27:24;86168.40;;;-4.10
74539;BMP180;66042;51.090;-115.340;2023-01-19T14:29:51;86175.00;;;-4.10
74539;BMP180;66042;51.090;-115.340;2023-01-19T14:32:23;86177.20;;;-4.00
74539;BMP180;66042;51.090;-115.340;2023-01-19T14:37:43;86175.40;;;-3.90
74539;BMP180;66042;51.090;-115.340;2023-01-19T14:40:17;86180.40;;;-3.90
74539;BMP180;66042;51.090;-115.340;2023-01-19T14:42:51;86181.80;;;-3.90
74539;BMP180;66042;51.090;-115.340;2023-01-19T14:45:22;86183.80;;;-3.90
74539;BMP180;66042;51.090;-115.340;2023-01-19T14:48:04;86180.40;;;-3.90
74539;BMP180;66042;51.090;-115.340;2023-01-19T14:50:39;86181.00;;;-3.98
74539;BMP180;66042;51.090;-115.340;2023-01-19T14:53:20;86190.60;;;-4.00
74539;BMP180;66042;51.090;-115.340;2023-01-19T14:56:03;86197.60;;;-4.06
74539;BMP180;66042;51.090;-115.340;2023-01-19T14:58:34;86200.20;;;-4.10
74539;BMP180;66042;51.090;-115.340;2023-01-19T15:01:01;86204.40;;;-4.20
74539;BMP180;66042;51.090;-115.340;2023-01-19T15:03:29;86209.00;;;-4.20
74539;BMP180;66042;51.090;-115.340;2023-01-19T15:05:58;86212.40;;;-4.30
74539;BMP180;66042;51.090;-115.340;2023-01-19T15:08:32;86219.40;;;-4.40
74539;BMP180;66042;51.090;-115.340;2023-01-19T15:13:48;86232.80;;;-4.50
74539;BMP180;66042;51.090;-115.340;2023-01-19T15:16:15;86235.60;;;-4.56
74539;BMP180;66042;51.090;-115.340;2023-01-19T15:18:42;86236.40;;;-4.54